Time;durP1;ratioP1;P1;durP2;ratioP2;P2;SDS_P1;SDS_P2;PMS_P1;PMS_P2;Temp;Humidity;BMP_temperature;BMP_pressure;BME280_temperature;BME280_humidity;BME280_pressure;Samples;Min_cycle;Max_cycle;Signal;HPM_P1;HPM_P2
2024/03/26 00:00:15;;;;;;;2.00;1.30;;;;;;;4.50;82.30;98682.92;106284;1254;69208;-79
2024/03/26 00:02:42;;;;;;;1.80;1.30;;;;;;;4.45;82.38;98681.31;107161;1252;72008;-77
2024/03/26 00:05:09;;;;;;;1.30;1.10;;;;;;;4.43;82.47;98681.68;108581;1253;60994;-76
2024/03/26 00:07:35;;;;;;;1.70;1.30;;;;;;;4.50;82.16;98682.00;107727;1251;61237;-79
2024/03/26 00:10:03;;;;;;;2.40;1.20;;;;;;;4.58;81.95;98684.35;106437;1255;73504;-79
2024/03/26 00:12:30;;;;;;;1.80;1.10;;;;;;;4.57;82.03;98686.05;106411;1255;70176;-79
2024/03/26 00:14:57;;;;;;;1.90;1.40;;;;;;;4.53;82.15;98685.06;106258;1253;72655;-78
2024/03/26 00:17:23;;;;;;;1.80;1.40;;;;;;;4.49;82.36;98683.02;106256;1251;61987;-76
2024/03/26 00:19:50;;;;;;;2.10;1.30;;;;;;;4.45;82.25;98681.32;106182;1251;61333;-78
2024/03/26 00:22:17;;;;;;;2.50;1.40;;;;;;;4.41;82.35;98674.83;106247;1251;74459;-78
2024/03/26 00:24:44;;;;;;;1.30;1.20;;;;;;;4.48;81.93;98673.46;106123;1251;61218;-78
2024/03/26 00:27:11;;;;;;;1.50;1.20;;;;;;;4.56;81.98;98679.58;106057;1254;73068;-75
2024/03/26 00:29:37;;;;;;;2.30;1.30;;;;;;;4.54;81.78;98676.30;105801;1251;61314;-77
2024/03/26 00:32:04;;;;;;;1.70;1.30;;;;;;;4.51;81.87;98677.91;105835;1251;61323;-79
2024/03/26 00:34:31;;;;;;;2.50;1.40;;;;;;;4.47;81.76;98678.95;105785;1257;74734;-80
2024/03/26 00:36:57;;;;;;;1.70;1.30;;;;;;;4.44;82.01;98678.96;106414;1253;61103;-78
2024/03/26 00:39:24;;;;;;;2.70;2.00;;;;;;;4.43;81.85;98674.52;106785;1253;71310;-77
2024/03/26 00:41:50;;;;;;;2.90;2.10;;;;;;;4.51;81.65;98674.41;106546;1256;61135;-77
2024/03/26 00:44:19;;;;;;;2.40;2.20;;;;;;;4.58;81.62;98674.02;106480;1251;61352;-78
2024/03/26 00:46:45;;;;;;;4.50;3.10;;;;;;;4.55;81.62;98669.77;106670;1251;74608;-79
2024/03/26 00:49:12;;;;;;;3.10;2.30;;;;;;;4.51;81.62;98677.48;106622;1251;68908;-78
2024/03/26 00:51:44;;;;;;;3.00;2.00;;;;;;;4.45;81.60;98676.90;106529;1251;61489;-78
2024/03/26 00:54:13;;;;;;;5.30;3.80;;;;;;;4.39;81.68;98675.61;106762;1251;61207;-78
2024/03/26 00:56:41;;;;;;;6.40;3.60;;;;;;;4.36;81.56;98675.90;107114;1251;61266;-76
2024/03/26 00:59:09;;;;;;;3.20;1.80;;;;;;;4.46;81.36;98681.20;107646;1251;75487;-75
2024/03/26 01:01:35;;;;;;;3.80;1.80;;;;;;;4.52;81.03;98679.35;107000;1254;61273;-77
2024/03/26 01:04:02;;;;;;;5.00;2.80;;;;;;;4.49;81.06;98676.11;106508;1254;72745;-78
2024/03/26 01:06:29;;;;;;;4.30;2.40;;;;;;;4.46;81.29;98677.89;106115;1251;61288;-77
2024/03/26 01:08:56;;;;;;;2.30;1.70;;;;;;;4.40;81.02;98674.08;106302;1252;61222;-76
2024/03/26 01:11:23;;;;;;;2.10;1.50;;;;;;;4.33;81.17;98672.63;105825;1254;75096;-79
2024/03/26 01:13:52;;;;;;;4.60;1.70;;;;;;;4.37;81.20;98674.42;106433;1256;69247;-78
2024/03/26 01:16:18;;;;;;;2.50;1.90;;;;;;;4.42;80.99;98671.76;106313;1251;71144;-76
2024/03/26 01:18:45;;;;;;;2.10;1.80;;;;;;;4.36;81.07;98674.97;106255;1256;61219;-76
2024/03/26 01:21:12;;;;;;;2.10;1.60;;;;;;;4.27;81.27;98676.11;106145;1251;61320;-75
2024/03/26 01:23:38;;;;;;;2.40;1.50;;;;;;;4.19;81.41;98676.92;105855;1251;73363;-78
2024/03/26 01:26:05;;;;;;;1.60;1.30;;;;;;;4.10;81.51;98677.09;106437;1251;70401;-77
2024/03/26 01:28:31;;;;;;;3.60;1.80;;;;;;;4.11;81.40;98682.37;106292;1251;72633;-78
2024/03/26 01:30:58;;;;;;;1.50;1.30;;;;;;;4.12;81.49;98679.98;106089;1254;61379;-78
2024/03/26 01:33:28;;;;;;;2.60;1.10;;;;;;;4.07;81.69;98682.79;106183;1255;60223;-78
2024/03/26 01:35:54;;;;;;;2.60;1.60;;;;;;;4.01;81.85;98680.05;106074;1253;73805;-77
2024/03/26 01:38:21;;;;;;;2.70;1.60;;;;;;;3.96;82.06;98684.96;105934;1251;71156;-77
2024/03/26 01:40:48;;;;;;;4.50;1.50;;;;;;;3.93;82.07;98687.49;106341;1251;72913;-77
2024/03/26 01:43:15;;;;;;;2.90;1.30;;;;;;;3.98;81.86;98687.61;106271;1253;61319;-78
2024/03/26 01:45:42;;;;;;;5.10;1.50;;;;;;;4.04;81.70;98687.49;106454;1254;61225;-77
2024/03/26 01:48:09;;;;;;;1.60;1.10;;;;;;;3.99;82.03;98694.79;106586;1251;73747;-78
2024/03/26 01:50:35;;;;;;;2.10;1.50;;;;;;;3.94;82.17;98696.91;107250;1251;69250;-77
2024/03/26 01:53:03;;;;;;;1.80;1.30;;;;;;;3.90;82.52;98696.58;107986;1251;71623;-78
2024/03/26 01:55:30;;;;;;;1.60;1.20;;;;;;;3.87;82.51;98697.77;107684;1251;61287;-79
2024/03/26 01:57:58;;;;;;;1.80;1.30;;;;;;;3.93;82.38;98697.71;106736;1251;61139;-78
2024/03/26 02:00:25;;;;;;;1.80;1.20;;;;;;;3.98;82.29;98702.59;106195;1254;74996;-75
2024/03/26 02:02:52;;;;;;;1.80;1.40;;;;;;;3.96;82.36;98702.84;106312;1253;70672;-76
2024/03/26 02:05:18;;;;;;;1.50;1.20;;;;;;;3.92;82.47;98700.27;106157;1254;71760;-76
2024/03/26 02:07:45;;;;;;;2.20;1.40;;;;;;;3.89;82.50;98710.83;106307;1251;61323;-77
2024/03/26 02:10:11;;;;;;;1.50;1.10;;;;;;;3.88;82.70;98716.08;106392;1251;61871;-76
2024/03/26 02:12:38;;;;;;;3.60;1.70;;;;;;;3.93;82.44;98725.20;106208;1251;74623;-75
2024/03/26 02:15:05;;;;;;;2.00;1.60;;;;;;;4.02;82.42;98727.45;105650;1254;61343;-76
2024/03/26 02:17:32;;;;;;;1.80;1.60;;;;;;;4.03;82.52;98730.91;106129;1251;72637;-77
2024/03/26 02:19:59;;;;;;;2.00;1.40;;;;;;;4.01;82.72;98727.77;106096;1251;62055;-77
2024/03/26 02:22:26;;;;;;;1.90;1.30;;;;;;;3.98;82.51;98732.64;106254;1251;61250;-76
2024/03/26 02:24:52;;;;;;;4.30;1.60;;;;;;;3.94;82.36;98731.60;106070;1251;73363;-77
2024/03/26 02:27:19;;;;;;;1.50;1.10;;;;;;;3.91;82.43;98727.95;106482;1253;61253;-75
2024/03/26 02:29:45;;;;;;;1.50;1.20;;;;;;;3.98;82.29;98726.25;106238;1254;61346;-76
2024/03/26 02:32:12;;;;;;;1.90;1.20;;;;;;;4.05;82.36;98723.61;106074;1251;61142;-74
2024/03/26 02:34:38;;;;;;;1.40;1.00;;;;;;;4.06;82.15;98724.63;105697;1255;61125;-75
2024/03/26 02:37:05;;;;;;;1.80;1.00;;;;;;;4.02;81.96;98726.23;106166;1253;61112;-76
2024/03/26 02:39:31;;;;;;;2.20;1.20;;;;;;;3.97;81.85;98728.30;105981;1251;61322;-75
2024/03/26 02:41:58;;;;;;;1.70;1.00;;;;;;;3.93;82.05;98729.85;106211;1257;61272;-75
2024/03/26 02:44:25;;;;;;;1.50;1.20;;;;;;;3.93;82.00;98737.77;106380;1251;61206;-76
2024/03/26 02:46:51;;;;;;;2.90;2.20;;;;;;;4.03;81.28;98733.97;107588;1251;61211;-77
2024/03/26 02:49:18;;;;;;;4.80;2.00;;;;;;;4.09;80.92;98734.84;107374;1251;75436;-73
2024/03/26 02:51:44;;;;;;;2.10;1.00;;;;;;;4.04;80.84;98737.27;107086;1251;61211;-74
2024/03/26 02:54:11;;;;;;;2.60;1.10;;;;;;;3.99;81.07;98739.13;106519;1256;73034;-75
2024/03/26 02:56:38;;;;;;;2.40;0.80;;;;;;;3.97;81.04;98740.27;106328;1251;61208;-76
2024/03/26 02:59:05;;;;;;;1.00;0.80;;;;;;;3.94;80.98;98745.27;106419;1254;61167;-76
2024/03/26 03:01:31;;;;;;;1.10;0.70;;;;;;;3.99;80.78;98746.33;106397;1251;74675;-76
2024/03/26 03:03:58;;;;;;;2.10;1.50;;;;;;;4.08;80.65;98752.25;106216;1251;61371;-77
2024/03/26 03:06:24;;;;;;;2.80;1.60;;;;;;;4.09;80.33;98757.05;106227;1257;61336;-77
2024/03/26 03:08:51;;;;;;;75.70;46.70;;;;;;;4.07;80.29;98764.66;106775;1253;61224;-76
2024/03/26 03:11:17;;;;;;;4.50;2.90;;;;;;;4.03;80.32;98766.59;106679;1251;61323;-79
2024/03/26 03:13:44;;;;;;;2.50;1.60;;;;;;;3.98;80.30;98776.60;106366;1257;59637;-77
2024/03/26 03:16:10;;;;;;;2.80;1.20;;;;;;;3.94;80.31;98781.65;106500;1251;61224;-77
2024/03/26 03:18:37;;;;;;;2.80;2.50;;;;;;;4.02;80.07;98785.61;106344;1254;71687;-76
2024/03/26 03:21:04;;;;;;;5.40;1.90;;;;;;;4.10;79.87;98785.69;106260;1254;61311;-75
2024/03/26 03:23:31;;;;;;;1.60;1.50;;;;;;;4.09;79.82;98785.44;106692;1251;61266;-77
2024/03/26 03:25:57;;;;;;;2.50;1.30;;;;;;;4.06;80.02;98792.19;106857;1256;73393;-77
2024/03/26 03:28:24;;;;;;;2.70;2.10;;;;;;;4.02;79.92;98796.70;106826;1256;61135;-77
2024/03/26 03:30:51;;;;;;;2.30;1.90;;;;;;;3.96;79.84;98798.81;107083;1254;72701;-77
2024/03/26 03:33:18;;;;;;;3.40;2.50;;;;;;;3.94;79.79;98809.90;106889;1252;61272;-76
2024/03/26 03:35:45;;;;;;;4.50;2.00;;;;;;;4.02;79.88;98811.25;106869;1251;61205;-77
2024/03/26 03:38:11;;;;;;;4.00;2.40;;;;;;;4.07;79.89;98813.48;106731;1251;73302;-76
2024/03/26 03:40:38;;;;;;;2.40;1.30;;;;;;;4.05;79.90;98812.02;108436;1251;61221;-76
2024/03/26 03:43:04;;;;;;;3.20;2.10;;;;;;;4.00;79.95;98808.39;108008;1255;61250;-77
2024/03/26 03:45:31;;;;;;;3.00;2.00;;;;;;;4.00;79.99;98815.24;106822;1251;61306;-74
2024/03/26 03:47:58;;;;;;;2.30;1.50;;;;;;;3.98;80.22;98813.16;106790;1251;61315;-77
2024/03/26 03:50:24;;;;;;;4.10;2.60;;;;;;;4.07;79.66;98805.99;106895;1251;61224;-78
2024/03/26 03:52:51;;;;;;;3.20;2.00;;;;;;;4.16;79.73;98805.72;106997;1251;70341;-77
2024/03/26 03:55:17;;;;;;;3.40;2.30;;;;;;;4.15;79.64;98811.55;106595;1254;60579;-77
2024/03/26 03:57:44;;;;;;;3.20;1.90;;;;;;;4.11;79.71;98818.05;106876;1252;61253;-75
2024/03/26 04:00:11;;;;;;;2.20;1.50;;;;;;;4.08;79.64;98827.09;107168;1253;61163;-78
2024/03/26 04:02:38;;;;;;;3.10;2.00;;;;;;;4.04;79.82;98831.65;107353;1254;73675;-77
2024/03/26 04:05:05;;;;;;;2.20;1.50;;;;;;;4.03;79.65;98835.80;106400;1251;278120;-77
2024/03/26 04:09:24;;;;;;;4.00;3.20;;;;;;;4.19;79.40;98835.84;102681;1294;601095;-79
2024/03/26 04:11:51;;;;;;;4.10;2.20;;;;;;;4.14;79.48;98844.01;104937;1269;60889;-78
2024/03/26 04:14:21;;;;;;;4.70;2.60;;;;;;;4.09;79.71;98844.45;105208;1272;59720;-78
2024/03/26 04:16:48;;;;;;;3.40;2.40;;;;;;;4.06;79.94;98846.58;105083;1270;73679;-78
2024/03/26 04:19:16;;;;;;;3.30;1.90;;;;;;;4.02;79.68;98852.02;105004;1268;70567;-79
2024/03/26 04:21:43;;;;;;;4.10;2.30;;;;;;;3.99;79.83;98863.70;104904;1269;71441;-78
2024/03/26 04:24:10;;;;;;;6.10;2.80;;;;;;;4.07;79.58;98867.14;104932;1267;179111;-76
2024/03/26 04:26:38;;;;;;;2.90;1.90;;;;;;;4.14;79.37;98871.05;105419;1264;60128;-77
2024/03/26 04:29:05;;;;;;;2.50;1.40;;;;;;;4.11;79.71;98877.44;105121;1263;71816;-76
2024/03/26 04:31:33;;;;;;;3.10;1.90;;;;;;;4.09;79.84;98879.92;105474;1260;70081;-78
2024/03/26 04:34:00;;;;;;;2.70;1.80;;;;;;;4.06;79.82;98883.88;106522;1260;71408;-77
2024/03/26 04:36:27;;;;;;;2.40;1.70;;;;;;;4.04;79.75;98887.20;107873;1265;59207;-75
2024/03/26 04:38:54;;;;;;;2.40;1.40;;;;;;;4.04;79.94;98894.73;106695;1261;60550;-77
2024/03/26 04:41:22;;;;;;;2.70;1.40;;;;;;;4.16;79.79;98899.08;105512;1262;72820;-75
2024/03/26 04:43:49;;;;;;;2.70;1.70;;;;;;;4.26;79.58;98900.06;105334;1267;68761;-76
2024/03/26 04:46:16;;;;;;;3.40;1.60;;;;;;;4.25;79.38;98905.54;105453;1261;71708;-75
2024/03/26 04:48:43;;;;;;;5.00;2.40;;;;;;;4.24;79.70;98905.86;105162;1266;60864;-77
2024/03/26 04:51:10;;;;;;;6.00;2.60;;;;;;;4.22;79.31;98914.23;105987;1261;60355;-77
2024/03/26 04:53:38;;;;;;;3.30;2.00;;;;;;;4.23;79.41;98919.25;105584;1261;73969;-76
2024/03/26 04:56:05;;;;;;;3.20;1.90;;;;;;;4.23;79.38;98923.63;105495;1262;68860;-76
2024/03/26 04:58:33;;;;;;;2.70;1.80;;;;;;;4.33;78.96;98927.35;105402;1263;72742;-76
2024/03/26 05:01:00;;;;;;;2.60;1.60;;;;;;;4.42;78.61;98928.16;105539;1267;60541;-77
2024/03/26 05:03:27;;;;;;;3.00;1.60;;;;;;;4.41;78.71;98932.77;105345;1261;60416;-76
2024/03/26 05:05:55;;;;;;;2.60;1.70;;;;;;;4.39;78.68;98938.36;105641;1260;72567;-77
2024/03/26 05:08:22;;;;;;;4.10;2.00;;;;;;;4.36;78.33;98935.66;105421;1267;69187;-77
2024/03/26 05:10:49;;;;;;;3.90;2.20;;;;;;;4.34;78.59;98944.13;105445;1262;72710;-77
2024/03/26 05:13:16;;;;;;;7.20;2.00;;;;;;;4.35;78.45;98944.92;105370;1262;61076;-78
2024/03/26 05:15:44;;;;;;;3.10;1.70;;;;;;;4.47;78.30;98948.81;104986;1265;60379;-75
2024/03/26 05:18:11;;;;;;;2.20;1.40;;;;;;;4.51;78.00;98949.84;105291;1267;73064;-75
2024/03/26 05:20:38;;;;;;;4.70;1.80;;;;;;;4.49;78.19;98946.36;105275;1265;69983;-74
2024/03/26 05:23:06;;;;;;;2.70;1.80;;;;;;;4.51;78.05;98951.96;104716;1269;71504;-79
2024/03/26 05:25:33;;;;;;;1.80;1.10;;;;;;;4.49;77.93;98955.77;105260;1268;60504;-78
2024/03/26 05:28:00;;;;;;;2.30;1.40;;;;;;;4.48;77.94;98963.79;106289;1262;60534;-78
2024/03/26 05:30:27;;;;;;;3.70;1.60;;;;;;;4.56;77.46;98964.75;107399;1262;72376;-77
2024/03/26 05:32:55;;;;;;;1.50;1.30;;;;;;;4.66;77.45;98965.54;107109;1256;70609;-78
2024/03/26 05:35:22;;;;;;;2.50;1.40;;;;;;;4.68;77.36;98969.24;106055;1256;72681;-77
2024/03/26 05:37:49;;;;;;;1.90;1.10;;;;;;;4.67;77.52;98967.61;105794;1254;60600;-78
2024/03/26 05:40:17;;;;;;;1.90;1.30;;;;;;;4.67;77.40;98965.34;105879;1256;60432;-78
2024/03/26 05:42:44;;;;;;;3.00;1.80;;;;;;;4.68;77.32;98969.40;105757;1254;73910;-76
2024/03/26 05:45:11;;;;;;;2.30;1.70;;;;;;;4.69;77.40;98974.41;105950;1258;69551;-77
2024/03/26 05:47:38;;;;;;;4.40;1.50;;;;;;;4.70;77.36;98976.58;105696;1259;71507;-79
2024/03/26 05:50:06;;;;;;;3.50;1.50;;;;;;;4.82;77.25;98978.20;105697;1259;60446;-78
2024/03/26 05:52:33;;;;;;;2.90;1.50;;;;;;;4.94;77.05;98979.38;105815;1256;60512;-80
2024/03/26 05:55:01;;;;;;;3.20;1.70;;;;;;;4.94;76.52;98982.85;105765;1256;73953;-76
2024/03/26 05:57:28;;;;;;;4.70;1.90;;;;;;;4.91;76.37;98985.23;105684;1260;68749;-78
2024/03/26 05:59:56;;;;;;;2.00;1.60;;;;;;;4.89;76.70;98985.98;105670;1261;72611;-76
2024/03/26 06:02:23;;;;;;;2.90;1.40;;;;;;;4.90;76.77;98988.83;105843;1256;61467;-78
2024/03/26 06:04:50;;;;;;;3.80;1.50;;;;;;;4.91;76.69;98990.81;105811;1255;60417;-78
2024/03/26 06:07:18;;;;;;;2.70;1.30;;;;;;;5.04;76.06;98991.86;106062;1256;73737;-78
2024/03/26 06:09:45;;;;;;;2.30;1.30;;;;;;;5.15;75.84;98993.66;106027;1257;69300;-78
2024/03/26 06:12:12;;;;;;;2.50;1.50;;;;;;;5.16;75.75;98993.70;105814;1260;72857;-78
2024/03/26 06:14:39;;;;;;;2.30;1.30;;;;;;;5.19;75.61;98995.67;105661;1260;60439;-78
2024/03/26 06:17:07;;;;;;;5.50;2.00;;;;;;;5.23;75.31;98999.91;105768;1254;60530;-78
2024/03/26 06:19:34;;;;;;;4.50;2.50;;;;;;;5.25;75.42;98996.85;105696;1256;73056;-77
2024/03/26 06:22:01;;;;;;;5.40;2.80;;;;;;;5.26;75.03;99001.78;106254;1255;72148;-75
2024/03/26 06:24:28;;;;;;;4.50;2.90;;;;;;;5.28;75.28;99004.27;108049;1256;71477;-77
2024/03/26 06:26:56;;;;;;;4.50;2.80;;;;;;;5.38;74.97;99007.48;107879;1256;60538;-76
2024/03/26 06:29:23;;;;;;;6.00;2.40;;;;;;;5.57;74.68;99008.80;106489;1254;61010;-77
2024/03/26 06:31:51;;;;;;;4.00;2.40;;;;;;;5.66;74.41;99010.31;105982;1256;74226;-80
2024/03/26 06:34:18;;;;;;;4.90;2.30;;;;;;;5.70;74.30;99014.16;105943;1256;69968;-76
2024/03/26 06:36:45;;;;;;;3.10;2.20;;;;;;;5.75;74.44;99015.04;105941;1260;72787;-78
2024/03/26 06:39:17;;;;;;;5.00;2.40;;;;;;;5.81;74.35;99016.86;106049;1257;60473;-78
2024/03/26 06:41:45;;;;;;;6.40;1.90;;;;;;;5.86;74.03;99016.73;106091;1260;60407;-78
2024/03/26 06:44:12;;;;;;;3.20;1.70;;;;;;;5.87;73.38;99019.10;106133;1261;73053;-78
2024/03/26 06:46:40;;;;;;;3.90;2.20;;;;;;;5.84;73.24;99022.92;106547;1258;70746;-81
2024/03/26 06:49:08;;;;;;;5.00;2.10;;;;;;;5.86;73.48;99029.75;106228;1256;71378;-77
2024/03/26 06:51:35;;;;;;;5.00;3.60;;;;;;;6.03;73.55;99030.89;106107;1256;62921;-77
2024/03/26 06:54:02;;;;;;;9.40;6.10;;;;;;;6.19;73.10;99033.33;106440;1259;60282;-78
2024/03/26 06:56:30;;;;;;;6.40;4.90;;;;;;;6.25;73.05;99032.03;106016;1259;74846;-78
2024/03/26 06:58:57;;;;;;;5.70;3.40;;;;;;;6.28;72.29;99035.19;106548;1256;69382;-84
2024/03/26 07:01:25;;;;;;;3.80;2.60;;;;;;;6.28;72.29;99034.00;107359;1256;72694;-86
2024/03/26 07:03:52;;;;;;;5.20;3.20;;;;;;;6.27;72.08;99036.87;107202;1258;60461;-82
2024/03/26 07:06:19;;;;;;;5.90;4.10;;;;;;;6.24;71.91;99038.52;109062;1255;60021;-83
2024/03/26 07:08:47;;;;;;;9.60;5.40;;;;;;;6.28;72.19;99042.90;107901;1254;74949;-85
2024/03/26 07:11:14;;;;;;;7.10;3.30;;;;;;;6.35;71.97;99048.73;107413;1254;73018;-82
2024/03/26 07:13:42;;;;;;;4.50;2.20;;;;;;;6.43;71.59;99052.83;108471;1254;73779;-83
2024/03/26 07:16:10;;;;;;;4.70;2.10;;;;;;;6.60;71.59;99059.86;108543;1254;61064;-84
2024/03/26 07:18:38;;;;;;;6.50;3.50;;;;;;;6.67;71.22;99060.38;109034;1254;59424;-84
2024/03/26 07:21:07;;;;;;;7.10;4.60;;;;;;;6.72;71.28;99060.73;109070;1254;73607;-85
2024/03/26 07:23:35;;;;;;;4.00;2.70;;;;;;;6.78;71.22;99060.78;108493;1254;71413;-87
2024/03/26 07:26:03;;;;;;;5.00;3.20;;;;;;;6.85;71.14;99064.66;108547;1254;73564;-85
2024/03/26 07:28:30;;;;;;;5.10;2.40;;;;;;;6.96;71.07;99070.77;107813;1254;61416;-84
2024/03/26 07:30:58;;;;;;;3.20;1.80;;;;;;;7.06;70.26;99071.77;107878;1253;60413;-87
2024/03/26 07:33:26;;;;;;;2.50;1.70;;;;;;;7.11;69.03;99074.66;107888;1253;74756;-85
2024/03/26 07:35:53;;;;;;;2.20;1.70;;;;;;;7.09;68.82;99077.30;107669;1255;71556;-84
2024/03/26 07:38:21;;;;;;;3.00;1.80;;;;;;;7.09;68.79;99077.07;107349;1254;73366;-85
2024/03/26 07:40:48;;;;;;;4.30;1.90;;;;;;;7.13;68.91;99087.64;107486;1254;60518;-85
2024/03/26 07:43:17;;;;;;;2.90;1.90;;;;;;;7.21;69.07;99084.33;107259;1258;59849;-81
2024/03/26 07:45:50;;;;;;;3.20;2.20;;;;;;;7.27;68.58;99079.58;107555;1254;73097;-84
2024/03/26 07:48:18;;;;;;;4.50;3.10;;;;;;;7.41;68.00;99086.83;107715;1255;72377;-84
2024/03/26 07:50:48;;;;;;;5.30;2.50;;;;;;;7.54;67.84;99084.85;107678;1254;73771;-83
2024/03/26 07:53:16;;;;;;;2.90;2.20;;;;;;;7.63;67.83;99087.17;107961;1255;60384;-82
2024/03/26 07:55:44;;;;;;;4.70;2.30;;;;;;;7.72;67.47;99087.20;108115;1255;59042;-86
2024/03/26 07:58:13;;;;;;;4.60;2.00;;;;;;;7.79;67.43;99087.27;108328;1253;72846;-87
2024/03/26 08:00:41;;;;;;;3.40;2.50;;;;;;;7.89;66.92;99090.42;108345;1253;70983;-85
2024/03/26 08:03:08;;;;;;;3.90;2.80;;;;;;;7.99;66.80;99093.19;107735;1255;74094;-88
2024/03/26 08:05:36;;;;;;;6.00;2.10;;;;;;;8.08;65.42;99093.64;108501;1254;62243;-86
2024/03/26 08:08:04;;;;;;;3.70;2.20;;;;;;;8.10;65.12;99097.02;108737;1254;60139;-88
2024/03/26 08:10:38;;;;;;;3.80;1.90;;;;;;;8.13;64.81;99098.80;108932;1254;74913;-88
2024/03/26 08:13:11;;;;;;;2.40;1.50;;;;;;;8.19;65.26;99101.42;109185;1254;71322;-86
2024/03/26 08:15:42;;;;;;;2.70;1.60;;;;;;;8.26;63.96;99102.57;107679;1254;73741;-77
2024/03/26 08:18:10;;;;;;;3.30;1.90;;;;;;;8.30;64.05;99105.88;106550;1254;61716;-75
2024/03/26 08:20:40;;;;;;;4.30;2.20;;;;;;;8.34;63.63;99108.11;106496;1255;61157;-81
2024/03/26 08:23:07;;;;;;;3.20;2.00;;;;;;;8.38;63.45;99109.44;107972;1254;76662;-83
2024/03/26 08:25:35;;;;;;;3.30;1.90;;;;;;;8.43;63.62;99110.44;107443;1254;69146;-83
2024/03/26 08:28:03;;;;;;;2.30;1.70;;;;;;;8.52;63.02;99109.00;107147;1254;73523;-83
2024/03/26 08:30:31;;;;;;;2.30;1.70;;;;;;;8.60;62.91;99114.98;107928;1256;61105;-88
2024/03/26 08:33:07;;;;;;;2.00;1.40;;;;;;;8.68;62.26;99112.27;107627;1256;61123;-81
2024/03/26 08:35:39;;;;;;;2.10;1.50;;;;;;;8.78;62.34;99117.05;107259;1254;76624;-83
2024/03/26 08:38:07;;;;;;;2.80;1.60;;;;;;;8.86;62.25;99113.51;108261;1254;71009;-82
2024/03/26 08:40:37;;;;;;;3.80;1.40;;;;;;;8.96;61.91;99112.23;108306;1256;73916;-83
2024/03/26 08:43:05;;;;;;;1.80;1.20;;;;;;;9.06;61.64;99115.66;107576;1258;61102;-82
2024/03/26 08:45:32;;;;;;;2.80;1.50;;;;;;;9.18;61.50;99116.71;106838;1254;61202;-83
2024/03/26 08:48:00;;;;;;;2.60;1.60;;;;;;;9.31;60.63;99115.45;107335;1260;75294;-81
2024/03/26 08:50:28;;;;;;;3.80;1.70;;;;;;;9.36;60.44;99116.24;107158;1254;71226;-81
2024/03/26 08:52:56;;;;;;;3.40;1.70;;;;;;;9.43;60.34;99114.98;106555;1258;71492;-80
2024/03/26 08:55:23;;;;;;;3.30;1.80;;;;;;;9.55;59.76;99112.71;106893;1254;62459;-79
2024/03/26 08:57:50;;;;;;;3.10;1.60;;;;;;;9.70;59.91;99113.45;107986;1256;62127;-79
2024/03/26 09:00:18;;;;;;;2.70;1.70;;;;;;;9.87;59.70;99113.78;106984;1254;73874;-80
2024/03/26 09:02:45;;;;;;;6.60;2.20;;;;;;;9.99;59.02;99115.97;106727;1256;70162;-80
2024/03/26 09:05:13;;;;;;;4.30;2.50;;;;;;;10.09;58.44;99118.05;107076;1254;73231;-80
2024/03/26 09:07:40;;;;;;;3.80;2.30;;;;;;;10.23;59.39;99117.41;108229;1255;61354;-77
2024/03/26 09:10:08;;;;;;;3.50;2.20;;;;;;;10.49;59.16;99115.80;108864;1254;58778;-78
2024/03/26 09:12:36;;;;;;;4.20;2.00;;;;;;;10.73;58.22;99108.92;107134;1254;73673;-77
2024/03/26 09:15:04;;;;;;;3.20;2.00;;;;;;;10.97;58.01;99104.58;108123;1256;69321;-79
2024/03/26 09:17:31;;;;;;;2.70;1.50;;;;;;;11.32;55.57;99111.28;108705;1254;71743;-79
2024/03/26 09:19:59;;;;;;;6.90;2.30;;;;;;;11.64;55.83;99109.39;108704;1254;61023;-79
2024/03/26 09:22:27;;;;;;;3.40;2.00;;;;;;;12.14;55.25;99111.23;109062;1255;62103;-79
2024/03/26 09:24:54;;;;;;;3.10;2.00;;;;;;;12.77;54.15;99111.79;109016;1255;75560;-81
2024/03/26 09:27:21;;;;;;;3.00;2.10;;;;;;;13.29;52.00;99107.15;107746;1259;70896;-81
2024/03/26 09:29:49;;;;;;;3.80;1.80;;;;;;;13.67;51.33;99110.35;106713;1256;71506;-83
2024/03/26 09:32:16;;;;;;;2.40;1.90;;;;;;;14.03;50.43;99114.27;106881;1256;61106;-82
2024/03/26 09:34:44;;;;;;;1.90;1.40;;;;;;;14.33;49.64;99114.71;107479;1255;61188;-83
2024/03/26 09:37:12;;;;;;;2.50;2.10;;;;;;;14.59;48.35;99112.34;108804;1256;73406;-84
2024/03/26 09:39:40;;;;;;;3.00;2.00;;;;;;;14.80;47.99;99117.26;109149;1254;69000;-86
2024/03/26 09:42:08;;;;;;;4.20;1.70;;;;;;;15.15;48.45;99116.23;107816;1256;73848;-86
2024/03/26 09:44:35;;;;;;;2.20;1.90;;;;;;;15.56;46.81;99114.11;108336;1255;61173;-86
2024/03/26 09:47:03;;;;;;;2.50;1.80;;;;;;;15.88;45.68;99116.70;109089;1255;62378;-84
2024/03/26 09:49:31;;;;;;;2.60;2.00;;;;;;;16.23;44.31;99119.85;109169;1254;73509;-86
2024/03/26 09:51:58;;;;;;;3.60;2.70;;;;;;;16.49;43.99;99114.23;109236;1254;71066;-85
2024/03/26 09:54:26;;;;;;;3.20;2.60;;;;;;;16.89;42.97;99119.88;109112;1254;70932;-84
2024/03/26 09:56:54;;;;;;;4.70;2.10;;;;;;;17.32;41.72;99114.03;109175;1254;61231;-85
2024/03/26 09:59:21;;;;;;;6.50;3.80;;;;;;;17.74;41.40;99117.85;109202;1254;62264;-85
2024/03/26 10:01:49;;;;;;;4.00;2.20;;;;;;;18.25;40.53;99123.55;109133;1254;75678;-81
2024/03/26 10:04:17;;;;;;;3.70;2.10;;;;;;;18.75;40.10;99120.17;108476;1255;69007;-76
2024/03/26 10:06:44;;;;;;;6.00;3.50;;;;;;;19.20;39.34;99131.40;107721;1255;72183;-77
2024/03/26 10:09:12;;;;;;;5.00;3.10;;;;;;;19.56;38.87;99129.27;107647;1254;60537;-75
2024/03/26 10:11:39;;;;;;;3.40;3.00;;;;;;;19.72;38.64;99129.46;107106;1256;60358;-74
2024/03/26 10:14:09;;;;;;;2.90;2.40;;;;;;;19.90;38.30;99129.14;108196;1255;75140;-78
2024/03/26 10:16:41;;;;;;;5.20;2.70;;;;;;;19.90;38.00;99130.70;108042;1254;71311;-77
2024/03/26 10:19:09;;;;;;;4.60;1.90;;;;;;;19.86;37.59;99123.20;107608;1253;74047;-78
2024/03/26 10:21:45;;;;;;;3.90;1.90;;;;;;;19.87;37.50;99127.38;107401;1256;61337;-77
2024/03/26 10:24:13;;;;;;;3.00;1.90;;;;;;;20.10;37.58;99134.20;107888;1255;61145;-78
2024/03/26 10:26:40;;;;;;;2.30;1.80;;;;;;;20.38;36.70;99130.38;107780;1256;73287;-78
2024/03/26 10:29:07;;;;;;;2.90;1.90;;;;;;;20.46;36.05;99137.06;106961;1254;68704;-80
2024/03/26 10:31:38;;;;;;;2.20;1.90;;;;;;;20.45;36.11;99138.47;107621;1255;73573;-79
2024/03/26 10:34:05;;;;;;;3.80;2.10;;;;;;;20.55;36.01;99140.11;107845;1259;61550;-80
2024/03/26 10:36:33;;;;;;;4.20;3.00;;;;;;;20.74;36.23;99141.92;107442;1255;61163;-77
2024/03/26 10:39:00;;;;;;;4.70;2.70;;;;;;;20.93;35.31;99143.15;107461;1254;75629;-80
2024/03/26 10:41:32;;;;;;;5.00;1.90;;;;;;;21.04;34.56;99141.39;108226;1254;71373;-82
2024/03/26 10:44:00;;;;;;;2.90;2.10;;;;;;;20.96;34.97;99141.73;108661;1256;73889;-82
2024/03/26 10:46:30;;;;;;;3.30;1.70;;;;;;;21.04;34.91;99136.31;107726;1255;60532;-78
2024/03/26 10:49:05;;;;;;;2.90;2.30;;;;;;;21.24;34.35;99132.92;108009;1255;61512;-77
2024/03/26 10:51:33;;;;;;;2.50;2.30;;;;;;;21.35;34.39;99136.13;108224;1254;75630;-81
2024/03/26 10:54:00;;;;;;;3.80;2.80;;;;;;;21.49;33.80;99136.56;108865;1254;69389;-80
2024/03/26 10:56:29;;;;;;;5.50;2.60;;;;;;;21.67;33.69;99137.34;108971;1256;73432;-79
2024/03/26 10:58:59;;;;;;;7.20;5.40;;;;;;;22.02;33.57;99139.00;108660;1254;61494;-80
2024/03/26 11:01:28;;;;;;;12.10;10.50;;;;;;;22.35;32.99;99140.36;108618;1254;61015;-81
2024/03/26 11:03:56;;;;;;;7.90;6.50;;;;;;;22.62;32.46;99139.07;108942;1256;73360;-80
2024/03/26 11:06:24;;;;;;;5.30;4.80;;;;;;;22.91;32.37;99147.04;108885;1259;71402;-79
2024/03/26 11:08:58;;;;;;;13.90;12.60;;;;;;;23.26;31.77;99141.98;108667;1254;71611;-82
2024/03/26 11:11:25;;;;;;;11.50;10.50;;;;;;;23.53;32.06;99145.81;108768;1254;61124;-81
2024/03/26 11:13:56;;;;;;;4.40;4.00;;;;;;;23.92;30.74;99139.42;108544;1254;63137;-80
2024/03/26 11:16:37;;;;;;;9.20;8.20;;;;;;;24.24;31.34;99143.54;108729;1256;79024;-82
2024/03/26 11:19:17;;;;;;;9.80;6.40;;;;;;;24.71;30.37;99147.24;108512;1254;69138;-79
2024/03/26 11:21:44;;;;;;;7.10;6.40;;;;;;;25.22;29.16;99142.94;108653;1253;71634;-80
2024/03/26 11:24:31;;;;;;;5.70;5.20;;;;;;;25.36;27.76;99150.27;108506;1254;61181;-78
2024/03/26 11:27:02;;;;;;;3.90;3.50;;;;;;;24.70;28.41;99153.17;108837;1254;61405;-75
2024/03/26 11:29:32;;;;;;;4.10;2.70;;;;;;;24.48;28.74;99151.61;108623;1254;74476;-80
2024/03/26 11:32:00;;;;;;;3.60;2.70;;;;;;;24.57;28.56;99155.80;108702;1254;69562;-81
2024/03/26 11:34:28;;;;;;;4.20;3.80;;;;;;;24.62;28.41;99147.55;108665;1256;73833;-74